Time;durP1;ratioP1;P1;durP2;ratioP2;P2;SDS_P1;SDS_P2;PMS_P1;PMS_P2;Temp;Humidity;BMP_temperature;BMP_pressure;BME280_temperature;BME280_humidity;BME280_pressure;Samples;Min_cycle;Max_cycle;Signal;HPM_P1;HPM_P2
2021/04/01 00:01:35;;;;;;;36.90;26.35;;;;;;;10.77;75.38;99942.44;1767707;79;21716;-60
2021/04/01 00:04:03;;;;;;;34.17;26.87;;;;;;;10.76;75.36;99944.72;1766875;79;21164;-62
2021/04/01 00:06:30;;;;;;;33.70;25.15;;;;;;;10.73;75.37;99936.77;1785101;78;21180;-61
2021/04/01 00:08:57;;;;;;;31.60;23.38;;;;;;;10.70;75.39;99933.37;1784405;78;21565;-61
2021/04/01 00:11:24;;;;;;;34.18;23.15;;;;;;;10.67;75.47;99938.41;1782876;78;21596;-61
2021/04/01 00:13:52;;;;;;;32.90;23.87;;;;;;;10.64;75.49;99935.84;1784947;78;21164;-61
2021/04/01 00:16:20;;;;;;;35.85;24.30;;;;;;;10.61;75.50;99932.84;1783951;78;21722;-61
2021/04/01 00:18:47;;;;;;;31.00;23.85;;;;;;;10.60;75.54;99930.22;1787037;78;22299;-61
2021/04/01 00:21:15;;;;;;;34.33;25.65;;;;;;;10.58;75.58;99919.52;1784437;78;21230;-61
2021/04/01 00:23:42;;;;;;;44.48;26.68;;;;;;;10.56;75.58;99920.05;1789274;78;21136;-61
2021/04/01 00:26:09;;;;;;;39.75;26.68;;;;;;;10.54;75.63;99914.35;1782454;78;21180;-61
2021/04/01 00:29:30;;;;;;;34.57;24.23;;;;;;;10.53;75.71;99901.84;1798110;78;24388;-61
2021/04/01 00:31:58;;;;;;;34.03;24.35;;;;;;;10.47;75.80;99910.16;1769464;80;22071;-61
2021/04/01 00:34:25;;;;;;;36.10;24.27;;;;;;;10.46;75.86;99903.91;1720045;81;22719;-61
2021/04/01 00:36:53;;;;;;;26.47;20.63;;;;;;;10.45;75.91;99897.27;1722583;81;21249;-61
2021/04/01 00:39:20;;;;;;;26.52;21.23;;;;;;;10.44;75.90;99888.80;1735891;81;21531;-60
2021/04/01 00:41:47;;;;;;;28.80;21.85;;;;;;;10.41;75.98;99887.58;1714841;80;21078;-61
2021/04/01 00:44:16;;;;;;;32.20;23.17;;;;;;;10.37;76.09;99890.90;1731082;80;21202;-61
2021/04/01 00:46:48;;;;;;;34.70;24.77;;;;;;;10.34;76.13;99886.99;1704068;82;21261;-61
2021/04/01 00:49:16;;;;;;;36.80;26.13;;;;;;;10.31;76.20;99887.12;1706838;82;21238;-61
2021/04/01 00:51:43;;;;;;;33.20;25.60;;;;;;;10.27;76.30;99893.59;1704424;82;21415;-61
2021/04/01 00:54:10;;;;;;;28.20;22.20;;;;;;;10.23;76.28;99889.28;1721550;80;21262;-61
2021/04/01 00:56:37;;;;;;;30.83;22.67;;;;;;;10.20;76.35;99897.04;1728529;80;21921;-61
2021/04/01 00:59:06;;;;;;;30.07;23.17;;;;;;;10.18;76.37;99899.38;1701374;82;21463;-61
2021/04/01 01:01:51;;;;;;;32.67;22.70;;;;;;;10.15;76.38;99892.75;1711999;82;21199;-61
2021/04/01 01:04:19;;;;;;;31.80;22.25;;;;;;;10.13;76.44;99887.90;1710088;82;21175;-61
2021/04/01 01:06:47;;;;;;;27.27;22.32;;;;;;;10.12;76.45;99886.18;1699378;82;21223;-61
2021/04/01 01:09:14;;;;;;;33.00;24.60;;;;;;;10.10;76.35;99886.24;1728524;80;21621;-61
2021/04/01 01:11:43;;;;;;;31.97;26.20;;;;;;;10.07;76.33;99879.64;1705893;82;21235;-61
2021/04/01 01:14:10;;;;;;;40.40;30.40;;;;;;;10.04;76.36;99881.11;1695848;82;21250;-61
2021/04/01 01:16:37;;;;;;;36.00;25.93;;;;;;;10.01;76.40;99870.50;1700913;82;21195;-59
2021/04/01 01:19:05;;;;;;;35.13;26.90;;;;;;;9.99;76.44;99868.81;1708847;82;22032;-61
2021/04/01 01:21:34;;;;;;;39.00;27.67;;;;;;;9.99;76.58;99868.34;1701258;82;21203;-61
2021/04/01 01:24:01;;;;;;;37.30;25.77;;;;;;;9.98;76.58;99863.03;1698735;82;22493;-60
2021/04/01 01:26:29;;;;;;;37.00;24.60;;;;;;;9.97;76.66;99862.63;1708350;82;21183;-61
2021/04/01 01:28:56;;;;;;;35.13;26.37;;;;;;;9.95;76.70;99858.69;1692287;82;21582;-61
2021/04/01 01:31:24;;;;;;;33.90;27.17;;;;;;;9.92;76.78;99860.16;1713400;81;21136;-61
2021/04/01 01:33:55;;;;;;;35.90;27.17;;;;;;;9.90;76.85;99857.12;1692305;84;21156;-61
2021/04/01 01:36:20;;;;;;;35.37;28.63;;;;;;;9.87;76.85;99856.30;1751381;79;21437;-61
2021/04/01 01:38:48;;;;;;;36.10;27.83;;;;;;;9.83;76.85;99850.67;1753927;79;21009;-59
2021/04/01 01:41:15;;;;;;;34.70;24.30;;;;;;;9.81;76.94;99853.89;1752390;79;20978;-61
2021/04/01 01:43:42;;;;;;;33.37;23.03;;;;;;;9.83;77.02;99852.48;1751427;79;21124;-61
2021/04/01 01:46:09;;;;;;;32.67;23.70;;;;;;;9.83;77.11;99847.98;1750880;81;21137;-61
2021/04/01 01:48:37;;;;;;;29.20;22.13;;;;;;;9.84;77.15;99851.08;1753211;79;21416;-61
2021/04/01 01:51:11;;;;;;;29.63;23.00;;;;;;;9.84;77.17;99849.73;1751070;81;21736;-60
2021/04/01 01:53:44;;;;;;;35.23;25.63;;;;;;;9.86;77.17;99846.52;1757969;79;21015;-58
2021/04/01 01:56:11;;;;;;;36.23;26.23;;;;;;;9.86;77.18;99844.30;1753009;79;21112;-58
2021/04/01 01:58:39;;;;;;;32.83;25.20;;;;;;;9.85;77.18;99842.08;1726134;81;21503;-58
2021/04/01 02:01:06;;;;;;;29.93;24.37;;;;;;;9.84;77.16;99837.64;1750771;79;21425;-59
2021/04/01 02:03:33;;;;;;;38.13;23.83;;;;;;;9.84;77.14;99836.77;1747605;79;21208;-58
2021/04/01 02:06:02;;;;;;;32.13;21.30;;;;;;;9.83;77.10;99834.55;1751487;79;21184;-58
2021/04/01 02:08:30;;;;;;;28.87;21.27;;;;;;;9.83;77.04;99829.16;1752874;79;21509;-57
2021/04/01 02:10:57;;;;;;;30.30;21.87;;;;;;;9.84;77.06;99824.66;1751091;79;21117;-58
2021/04/01 02:13:25;;;;;;;31.93;22.90;;;;;;;9.84;77.06;99832.73;1748948;81;21531;-58
2021/04/01 02:15:55;;;;;;;30.00;23.20;;;;;;;9.83;77.11;99829.63;1750597;79;21131;-59
2021/04/01 02:18:26;;;;;;;31.10;23.33;;;;;;;9.82;77.16;99830.10;1754144;79;21114;-58
2021/04/01 02:20:55;;;;;;;34.93;25.23;;;;;;;9.82;77.20;99827.88;1751257;79;21112;-59
2021/04/01 02:23:25;;;;;;;32.70;25.27;;;;;;;9.81;77.21;99831.04;1749236;81;21116;-60
2021/04/01 02:25:54;;;;;;;34.63;24.77;;;;;;;9.81;77.26;99828.35;1752310;79;21625;-58
2021/04/01 02:28:24;;;;;;;35.00;24.90;;;;;;;9.82;77.28;99824.73;1752262;79;21275;-60
2021/04/01 02:30:54;;;;;;;29.90;22.63;;;;;;;9.83;77.27;99823.79;1754954;79;21223;-60
2021/04/01 02:33:24;;;;;;;33.03;23.33;;;;;;;9.83;77.27;99819.76;1754839;79;21227;-58
2021/04/01 02:35:52;;;;;;;30.93;23.63;;;;;;;9.84;77.26;99822.85;1752932;79;21228;-60
2021/04/01 02:38:20;;;;;;;30.57;23.30;;;;;;;9.85;77.26;99821.91;1754257;79;21176;-58
2021/04/01 02:40:48;;;;;;;35.67;25.80;;;;;;;9.85;77.25;99813.85;1752042;79;21175;-56
2021/04/01 02:45:53;;;;;;;38.37;24.07;;;;;;;9.90;77.27;99812.75;1863864;75;22716;-60
2021/04/01 02:48:20;;;;;;;28.60;21.80;;;;;;;9.85;77.21;99810.28;1842891;77;21849;-58
2021/04/01 02:50:49;;;;;;;31.80;22.97;;;;;;;9.86;77.25;99815.60;1841291;77;22376;-59
2021/04/01 02:53:16;;;;;;;29.00;22.50;;;;;;;9.87;77.23;99815.09;1840962;77;21218;-58
2021/04/01 02:55:44;;;;;;;33.00;23.80;;;;;;;9.86;77.26;99815.60;1841958;77;21205;-59
2021/04/01 02:58:11;;;;;;;31.67;25.37;;;;;;;9.84;77.27;99813.44;1837750;77;21004;-59
2021/04/01 03:00:38;;;;;;;34.90;26.80;;;;;;;9.86;77.27;99816.95;1838648;77;21473;-59
2021/04/01 03:03:19;;;;;;;32.77;25.37;;;;;;;9.86;77.27;99814.73;1789478;78;22017;-59
2021/04/01 03:05:43;;;;;;;30.57;23.50;;;;;;;9.86;77.31;99808.00;1804386;78;21910;-59
2021/04/01 03:08:10;;;;;;;31.13;24.03;;;;;;;9.86;77.32;99814.26;1806329;78;21108;-58
2021/04/01 03:10:38;;;;;;;31.53;24.53;;;;;;;9.87;77.35;99807.03;1794237;78;21165;-60
2021/04/01 03:13:06;;;;;;;33.53;23.37;;;;;;;9.86;77.40;99800.81;1806428;78;21732;-59
2021/04/01 03:15:34;;;;;;;29.70;24.27;;;;;;;9.86;77.40;99800.81;1808289;78;21434;-58
2021/04/01 03:18:03;;;;;;;33.27;24.70;;;;;;;9.87;77.44;99800.31;1781190;78;21226;-60
2021/04/01 03:20:31;;;;;;;29.90;23.77;;;;;;;9.87;77.44;99796.28;1805180;78;21158;-57
2021/04/01 03:22:58;;;;;;;33.57;25.60;;;;;;;9.87;77.47;99798.50;1803743;78;21178;-61
2021/04/01 03:25:26;;;;;;;30.97;24.07;;;;;;;9.90;77.46;99802.00;1781694;79;21175;-58
2021/04/01 03:27:55;;;;;;;28.67;24.23;;;;;;;9.88;77.48;99801.59;1799792;78;21577;-57
2021/04/01 03:30:22;;;;;;;26.73;21.83;;;;;;;9.88;77.50;99794.87;1806139;78;22081;-57
2021/04/01 03:32:50;;;;;;;34.20;23.77;;;;;;;9.88;77.50;99800.25;1807162;78;21551;-58
2021/04/01 03:35:21;;;;;;;29.90;24.10;;;;;;;9.90;77.54;99795.28;1805316;78;21170;-58
2021/04/01 03:37:50;;;;;;;29.83;22.57;;;;;;;9.90;77.56;99786.74;1808463;78;21473;-58
2021/04/01 03:40:20;;;;;;;31.43;23.67;;;;;;;9.92;77.56;99782.64;1778931;79;21204;-58
2021/04/01 03:42:47;;;;;;;34.70;25.47;;;;;;;9.92;77.56;99788.02;1776095;79;21246;-58
2021/04/01 03:45:15;;;;;;;37.60;28.27;;;;;;;9.93;77.58;99795.16;1756193;79;21772;-58
2021/04/01 03:47:43;;;;;;;36.87;27.50;;;;;;;9.90;77.55;99789.43;1746418;80;21504;-59
2021/04/01 03:50:13;;;;;;;36.60;27.27;;;;;;;9.90;77.55;99787.21;1744295;80;21122;-57
2021/04/01 03:52:41;;;;;;;33.77;25.23;;;;;;;9.90;77.51;99787.21;1749344;79;21207;-58
2021/04/01 03:57:50;;;;;;;34.20;25.03;;;;;;;9.95;77.54;99778.02;1820188;75;23421;-58
2021/04/01 04:00:29;;;;;;;34.70;25.97;;;;;;;9.91;77.55;99782.24;1788313;77;21142;-60
2021/04/01 04:03:01;;;;;;;34.70;26.00;;;;;;;9.89;77.57;99786.34;1792190;79;21369;-59
2021/04/01 04:13:25;;;;;;;33.87;24.20;;;;;;;9.91;77.57;99773.70;1820315;76;22683;-59
2021/04/01 04:15:50;;;;;;;30.07;22.73;;;;;;;9.87;77.59;99774.77;1791459;77;21159;-59
2021/04/01 04:18:17;;;;;;;29.07;24.03;;;;;;;9.88;77.60;99767.98;1790123;77;21446;-60
2021/04/01 04:20:46;;;;;;;33.27;23.93;;;;;;;9.92;77.57;99770.55;1783978;78;21214;-58
2021/04/01 04:23:16;;;;;;;32.90;24.43;;;;;;;9.94;77.51;99768.67;1788143;79;21453;-59
2021/04/01 04:25:43;;;;;;;34.85;25.45;;;;;;;9.95;77.48;99762.36;1788923;78;21648;-58
2021/04/01 04:28:17;;;;;;;35.67;27.37;;;;;;;9.96;77.48;99763.60;1788420;79;21175;-58
2021/04/01 04:30:40;;;;;;;35.13;26.00;;;;;;;9.97;77.44;99756.41;1790940;77;21474;-57
2021/04/01 04:33:08;;;;;;;35.07;25.43;;;;;;;9.98;77.42;99760.38;1786958;79;21217;-58
2021/04/01 04:35:35;;;;;;;36.80;25.53;;;;;;;10.00;77.41;99753.59;1787628;77;21457;-58
2021/04/01 04:38:03;;;;;;;37.73;25.07;;;;;;;10.03;77.41;99755.69;1790322;77;21625;-58
2021/04/01 04:40:30;;;;;;;37.33;25.80;;;;;;;10.09;77.35;99751.83;1791008;79;21147;-59
2021/04/01 04:42:58;;;;;;;33.63;25.93;;;;;;;10.15;77.27;99751.53;1790415;77;21580;-58
2021/04/01 04:45:25;;;;;;;41.60;28.98;;;;;;;10.23;77.11;99750.73;1791152;79;21187;-59
2021/04/01 04:47:52;;;;;;;39.10;28.87;;;;;;;10.28;76.89;99743.81;1790733;78;21150;-60
2021/04/01 04:50:19;;;;;;;43.87;30.43;;;;;;;10.31;76.75;99740.48;1786779;78;21198;-59
2021/04/01 04:52:47;;;;;;;37.67;27.60;;;;;;;10.33;76.57;99742.64;1790391;79;21234;-58
2021/04/01 04:55:17;;;;;;;36.77;25.73;;;;;;;10.35;76.45;99735.84;1791226;77;21349;-60
2021/04/01 05:05:42;;;;;;;37.60;29.32;;;;;;;10.60;75.91;99723.83;1790030;78;20949;-57
2021/04/01 05:08:10;;;;;;;36.15;28.20;;;;;;;10.69;75.71;99725.67;1793063;79;21194;-58
2021/04/01 05:10:38;;;;;;;42.50;29.23;;;;;;;10.75;75.48;99728.05;1795103;79;21138;-61
2021/04/01 05:15:40;;;;;;;35.20;26.57;;;;;;;10.90;75.14;99722.77;1789302;79;21473;-60
2021/04/01 05:18:16;;;;;;;34.92;25.57;;;;;;;10.99;74.96;99721.44;1754785;79;21386;-59
2021/04/01 05:20:43;;;;;;;30.70;25.15;;;;;;;11.09;74.71;99721.38;1739038;81;21366;-58
2021/04/01 05:23:23;;;;;;;34.65;25.45;;;;;;;11.20;74.49;99722.19;1736821;80;21709;-59
2021/04/01 05:25:43;;;;;;;32.05;25.08;;;;;;;11.30;74.28;99724.81;1736160;81;21141;-58
2021/04/01 05:28:20;;;;;;;35.85;25.10;;;;;;;11.42;74.05;99727.33;1792814;79;21166;-60
2021/04/01 05:30:41;;;;;;;35.52;25.75;;;;;;;11.53;73.69;99720.44;1788527;77;21483;-58
2021/04/01 05:33:11;;;;;;;27.60;23.20;;;;;;;11.62;73.33;99721.77;1793674;79;21349;-59
2021/04/01 05:35:40;;;;;;;32.78;24.12;;;;;;;11.68;73.04;99718.74;1790097;77;21209;-57
2021/04/01 05:38:08;;;;;;;30.50;22.95;;;;;;;11.74;72.72;99717.97;1790254;77;21506;-60
2021/04/01 05:40:35;;;;;;;27.75;22.35;;;;;;;11.84;72.48;99713.43;1791645;79;21565;-59
2021/04/01 05:45:53;;;;;;;32.87;23.67;;;;;;;12.07;71.88;99701.80;1868681;75;22646;-60
2021/04/01 05:48:18;;;;;;;36.20;25.05;;;;;;;12.13;71.56;99708.68;1833414;77;21443;-58
2021/04/01 06:01:56;;;;;;;31.42;22.58;;;;;;;12.43;70.04;99693.93;1855989;76;21055;-59
2021/04/01 06:04:33;;;;;;;31.20;21.48;;;;;;;12.49;69.77;99685.03;1789356;79;21514;-60
2021/04/01 06:09:28;;;;;;;29.07;23.23;;;;;;;12.65;69.41;99678.27;1869671;75;21991;-60
2021/04/01 06:11:57;;;;;;;30.08;22.17;;;;;;;12.65;69.11;99690.89;1842211;77;21651;-58
2021/04/01 06:14:55;;;;;;;29.02;21.93;;;;;;;12.66;68.88;99684.54;1837502;76;21823;-57
2021/04/01 06:17:24;;;;;;;30.75;24.02;;;;;;;12.65;68.61;99688.20;1801173;78;21270;-58
2021/04/01 06:20:00;;;;;;;31.90;22.48;;;;;;;12.64;68.63;99679.70;1776881;79;21138;-60
2021/04/01 06:22:28;;;;;;;34.23;22.32;;;;;;;12.66;68.56;99680.02;1748937;80;21202;-60
2021/04/01 06:24:56;;;;;;;30.10;21.20;;;;;;;12.70;68.45;99675.28;1778794;79;21080;-58
2021/04/01 06:27:35;;;;;;;28.17;21.07;;;;;;;12.74;68.34;99673.68;1777152;79;21926;-58
2021/04/01 06:30:15;;;;;;;26.37;20.40;;;;;;;12.80;68.30;99679.20;1779424;79;21230;-59
2021/04/01 06:32:47;;;;;;;29.98;21.87;;;;;;;12.88;68.14;99671.52;1780269;79;21583;-58
2021/04/01 06:40:47;;;;;;;32.73;24.12;;;;;;;13.05;67.91;99673.22;1791593;78;20917;-60
2021/04/01 06:43:24;;;;;;;30.25;22.62;;;;;;;13.11;67.75;99659.33;1789364;79;21358;-58
2021/04/01 06:45:58;;;;;;;28.40;21.27;;;;;;;13.17;67.61;99659.89;1778754;78;21224;-60
2021/04/01 06:51:37;;;;;;;;;;;;;;;13.35;67.40;99666.49;1727118;81;21216;-57
2021/04/01 06:59:46;;;;;;;25.95;20.95;;;;;;;13.63;66.70;99647.11;1779881;79;21004;-60
2021/04/01 07:04:41;;;;;;;28.30;21.73;;;;;;;13.86;66.35;99651.09;1778136;79;21177;-58
2021/04/01 07:10:10;;;;;;;27.20;20.97;;;;;;;14.11;65.88;99644.98;1819524;76;23207;-59
2021/04/01 07:12:30;;;;;;;28.92;20.85;;;;;;;14.14;65.61;99643.41;1786323;78;21166;-57
2021/04/01 07:15:01;;;;;;;28.17;19.92;;;;;;;14.23;65.65;99647.36;1789529;77;21415;-60
2021/04/01 07:17:37;;;;;;;21.00;17.10;;;;;;;14.31;65.35;99641.83;1790130;77;20992;-60
2021/04/01 07:47:25;;;;;;;20.90;15.40;;;;;;;15.38;61.83;99604.81;1768636;79;20992;-58
2021/04/01 07:49:55;;;;;;;14.38;12.60;;;;;;;15.46;61.38;99604.65;1766203;80;21099;-58
2021/04/01 07:52:27;;;;;;;15.13;12.18;;;;;;;15.51;61.22;99598.39;1767548;80;21121;-60
2021/04/01 07:55:03;;;;;;;14.83;11.90;;;;;;;15.58;61.08;99600.70;1769804;80;21349;-57
2021/04/01 08:00:15;;;;;;;12.20;11.05;;;;;;;15.71;60.53;99589.37;1772450;79;21375;-59
2021/04/01 08:02:53;;;;;;;17.35;12.00;;;;;;;15.79;60.38;99590.55;1773926;80;21410;-60
2021/04/01 08:05:32;;;;;;;15.80;12.60;;;;;;;15.86;60.05;99580.11;1773326;80;21113;-58
2021/04/01 08:10:47;;;;;;;18.50;13.53;;;;;;;16.11;59.31;99577.83;1863951;74;22876;-57
2021/04/01 08:13:13;;;;;;;14.83;11.70;;;;;;;16.11;59.31;99577.83;1835060;75;20980;-57
2021/04/01 08:15:52;;;;;;;16.93;12.30;;;;;;;16.24;58.96;99573.24;1831859;75;21380;-59
2021/04/01 08:18:25;;;;;;;15.90;11.48;;;;;;;16.24;58.96;99573.24;1835071;75;20933;-58
2021/04/01 08:20:59;;;;;;;13.88;12.37;;;;;;;16.35;58.85;99567.85;1835185;75;21435;-59
2021/04/01 08:23:31;;;;;;;;;;;;;;;16.44;58.55;99557.66;1835404;75;20933;-57
2021/04/01 08:26:22;;;;;;;17.30;12.35;;;;;;;16.54;58.27;99552.40;1834253;75;20138;-59
2021/04/01 08:34:19;;;;;;;13.58;12.25;;;;;;;16.84;57.64;99546.52;1831209;75;21126;-60
2021/04/01 08:36:50;;;;;;;15.88;13.50;;;;;;;16.91;56.90;99539.62;1828855;75;21149;-60
2021/04/01 08:39:22;;;;;;;16.77;12.53;;;;;;;16.94;56.80;99543.44;1838057;75;22217;-59
2021/04/01 08:42:19;;;;;;;15.53;12.07;;;;;;;16.96;56.36;99540.98;1827826;75;21016;-59
2021/04/01 08:45:30;;;;;;;15.72;13.43;;;;;;;16.95;56.60;99529.73;1811526;77;21118;-59
2021/04/01 08:48:20;;;;;;;20.45;14.07;;;;;;;17.02;56.16;99534.19;1771589;77;21170;-57
2021/04/01 08:51:09;;;;;;;18.60;13.70;;;;;;;17.06;55.86;99530.75;1777852;78;21176;-56
2021/04/01 08:53:58;;;;;;;13.83;11.97;;;;;;;17.07;55.92;99525.69;1777939;78;21471;-58
2021/04/01 08:59:42;;;;;;;19.65;13.65;;;;;;;17.11;55.62;99523.95;1706398;82;21229;-57
2021/04/01 09:02:13;;;;;;;15.30;13.28;;;;;;;17.18;55.68;99518.40;1760635;79;22708;-58
2021/04/01 09:04:48;;;;;;;18.20;14.40;;;;;;;17.23;55.43;99516.69;1753081;79;21652;-57
2021/04/01 09:07:29;;;;;;;16.80;13.22;;;;;;;17.25;55.13;99513.37;1750422;79;21486;-60
2021/04/01 09:17:55;;;;;;;14.47;12.82;;;;;;;17.15;54.99;99503.70;1789751;77;21403;-58
2021/04/01 09:20:24;;;;;;;17.40;15.05;;;;;;;17.14;55.08;99504.69;1788351;79;21194;-59
2021/04/01 09:23:07;;;;;;;19.90;13.60;;;;;;;17.19;55.12;99495.66;1753402;80;21165;-60
2021/04/01 09:25:39;;;;;;;16.55;13.93;;;;;;;17.25;55.27;99496.55;1709197;81;21571;-59
2021/04/01 09:28:08;;;;;;;14.53;13.08;;;;;;;17.32;55.24;99495.06;1791004;79;21178;-59
2021/04/01 09:30:35;;;;;;;20.20;14.75;;;;;;;17.39;55.49;99485.42;1789375;77;21979;-61
2021/04/01 09:35:54;;;;;;;18.10;13.93;;;;;;;17.57;54.82;99478.13;1847062;75;27682;-56
2021/04/01 09:38:21;;;;;;;16.40;14.70;;;;;;;17.56;54.55;99482.70;1798024;78;21470;-57
2021/04/01 09:40:49;;;;;;;19.07;15.30;;;;;;;17.52;54.28;99478.51;1788948;77;21699;-57
2021/04/01 09:43:19;;;;;;;13.90;12.58;;;;;;;17.50;54.57;99471.45;1777218;78;22237;-59
2021/04/01 09:45:49;;;;;;;17.52;14.18;;;;;;;17.51;54.30;99477.27;1773478;80;21597;-58
2021/04/01 09:48:28;;;;;;;20.05;15.13;;;;;;;17.53;54.37;99467.09;1775309;80;21198;-58
2021/04/01 09:51:00;;;;;;;15.60;13.85;;;;;;;17.58;54.62;99467.61;1775774;80;20977;-57
2021/04/01 09:53:28;;;;;;;20.72;15.75;;;;;;;17.68;54.70;99459.97;1775657;79;21473;-60
2021/04/01 09:55:57;;;;;;;17.40;15.40;;;;;;;17.77;54.31;99467.87;1776629;80;21227;-59
2021/04/01 09:58:37;;;;;;;17.57;14.07;;;;;;;17.83;53.88;99462.41;1775514;80;21521;-59
2021/04/01 10:01:26;;;;;;;17.90;15.60;;;;;;;17.86;53.86;99450.78;1775466;80;21220;-57
2021/04/01 10:03:51;;;;;;;19.82;15.55;;;;;;;17.95;52.96;99452.71;1768558;79;21674;-60
2021/04/01 10:06:39;;;;;;;22.00;12.85;;;;;;;17.98;53.10;99446.16;1772248;80;22603;-58
2021/04/01 10:09:19;;;;;;;14.43;13.05;;;;;;;18.01;52.49;99444.05;1771947;80;21241;-59
2021/04/01 10:11:59;;;;;;;14.10;12.53;;;;;;;18.08;51.76;99438.45;1773424;79;21499;-59
2021/04/01 10:14:27;;;;;;;18.30;14.10;;;;;;;18.13;51.88;99424.44;1770809;80;21746;-58
2021/04/01 10:17:05;;;;;;;15.58;13.22;;;;;;;18.20;51.86;99432.98;1773260;79;21458;-59
2021/04/01 10:19:40;;;;;;;19.12;13.72;;;;;;;18.28;51.73;99420.94;1779564;80;21383;-58
2021/04/01 10:22:20;;;;;;;17.07;12.53;;;;;;;18.41;51.51;99416.15;1772415;80;21186;-60
2021/04/01 10:25:16;;;;;;;14.53;11.25;;;;;;;18.54;51.03;99418.20;1771099;80;21190;-60
2021/04/01 10:28:06;;;;;;;14.20;9.60;;;;;;;18.67;50.35;99412.08;1776795;79;21218;-60
2021/04/01 10:30:31;;;;;;;13.75;10.20;;;;;;;18.78;48.98;99412.52;1776068;79;21111;-59
2021/04/01 10:33:25;;;;;;;19.05;10.65;;;;;;;18.80;48.34;99399.09;1777053;79;21178;-59
2021/04/01 10:35:55;;;;;;;15.90;12.47;;;;;;;18.79;48.31;99407.43;1742138;81;21166;-59
2021/04/01 10:38:24;;;;;;;14.28;11.38;;;;;;;18.76;48.73;99393.55;1766464;80;21119;-59
2021/04/01 10:40:53;;;;;;;14.05;10.30;;;;;;;18.70;48.79;99387.78;1721260;80;21473;-58
2021/04/01 10:43:20;;;;;;;13.83;10.58;;;;;;;18.69;49.12;99392.87;1776126;79;20964;-59
2021/04/01 10:45:48;;;;;;;11.38;8.18;;;;;;;18.66;48.60;99391.27;1747921;80;22273;-59
2021/04/01 10:48:25;;;;;;;12.23;9.90;;;;;;;18.61;47.25;99384.00;1776257;80;21542;-58
2021/04/01 10:50:55;;;;;;;10.20;8.20;;;;;;;18.50;46.39;99381.30;1774087;80;21114;-58
2021/04/01 10:53:24;;;;;;;10.15;6.70;;;;;;;18.40;47.47;99379.86;1771165;80;21134;-55
2021/04/01 10:55:52;;;;;;;10.28;8.13;;;;;;;18.33;46.04;99377.30;1775851;79;21093;-59
2021/04/01 10:58:19;;;;;;;9.20;7.45;;;;;;;18.26;46.31;99373.88;1774990;80;21953;-59
2021/04/01 11:00:59;;;;;;;4.60;4.20;;;;;;;18.20;46.43;99363.52;1773422;80;21529;-60
2021/04/01 11:03:29;;;;;;;9.65;6.67;;;;;;;18.19;45.83;99364.51;1775093;80;21115;-61
2021/04/01 11:05:57;;;;;;;5.83;5.28;;;;;;;18.16;45.87;99362.90;1773154;79;20992;-59
2021/04/01 11:08:25;;;;;;;7.75;6.08;;;;;;;18.17;45.69;99349.66;1740104;80;21107;-58
2021/04/01 11:10:59;;;;;;;6.65;5.92;;;;;;;18.18;46.02;99349.16;1743111;79;21377;-59
2021/04/01 11:13:34;;;;;;;6.85;5.12;;;;;;;18.23;46.06;99348.25;1776096;80;21131;-59
2021/04/01 11:16:04;;;;;;;7.75;4.67;;;;;;;18.27;45.62;99343.78;1776482;80;21131;-59
2021/04/01 11:18:31;;;;;;;6.08;3.40;;;;;;;18.30;46.08;99339.91;1773370;79;21402;-61
2021/04/01 11:21:01;;;;;;;2.95;2.67;;;;;;;18.38;45.32;99326.48;1777035;80;21538;-59
2021/04/01 11:23:28;;;;;;;2.95;2.67;;;;;;;18.50;44.97;99329.02;1773231;79;22255;-59
2021/04/01 11:26:00;;;;;;;2.70;2.45;;;;;;;18.61;43.23;99315.85;1773776;80;21183;-59
2021/04/01 11:28:40;;;;;;;4.25;2.77;;;;;;;18.69;43.22;99316.03;1772461;80;21549;-58
2021/04/01 11:31:29;;;;;;;5.83;3.05;;;;;;;18.74;42.67;99306.94;1774807;79;21210;-60
2021/04/01 11:33:57;;;;;;;8.20;2.47;;;;;;;18.77;42.60;99307.17;1778805;79;21949;-59
2021/04/01 11:36:30;;;;;;;2.67;2.22;;;;;;;18.85;42.15;99305.48;1779060;80;22228;-57
2021/04/01 11:38:59;;;;;;;7.45;3.65;;;;;;;18.95;41.74;99307.40;1778370;80;21159;-59
2021/04/01 11:41:28;;;;;;;6.00;3.58;;;;;;;19.04;41.59;99300.62;1771345;80;21253;-58
2021/04/01 11:43:58;;;;;;;4.28;3.37;;;;;;;19.13;41.93;99290.73;1776334;79;21115;-59
2021/04/01 11:46:27;;;;;;;8.83;3.35;;;;;;;19.20;42.17;99283.22;1776195;79;20988;-59
2021/04/01 11:48:56;;;;;;;2.58;2.37;;;;;;;19.28;41.57;99289.34;1775920;79;21891;-59
2021/04/01 11:51:30;;;;;;;7.28;2.45;;;;;;;19.34;40.94;99280.58;1779669;80;21589;-60
2021/04/01 11:53:57;;;;;;;4.72;3.30;;;;;;;19.39;40.87;99276.08;1714548;82;21179;-59
2021/04/01 11:56:42;;;;;;;4.03;3.60;;;;;;;19.46;41.01;99275.38;1701870;83;21187;-59
2021/04/01 11:59:13;;;;;;;;;;;;;;;19.49;40.82;99276.47;1739783;82;21241;-59
2021/04/01 12:01:59;;;;;;;4.00;3.02;;;;;;;19.49;40.84;99271.01;1740330;82;21202;-58
2021/04/01 12:04:28;;;;;;;6.42;3.42;;;;;;;19.55;40.49;99262.77;1711001;83;21697;-61
2021/04/01 12:06:56;;;;;;;3.80;2.90;;;;;;;19.62;40.80;99259.33;1685037;83;21187;-58
2021/04/01 12:09:24;;;;;;;5.05;2.92;;;;;;;19.67;40.99;99256.66;1716008;83;21549;-59
2021/04/01 12:11:52;;;;;;;3.27;2.98;;;;;;;19.71;41.13;99249.91;1734123;80;21181;-61
2021/04/01 12:14:19;;;;;;;5.10;4.30;;;;;;;19.74;41.14;99246.37;1732246;81;22186;-59
2021/04/01 12:16:47;;;;;;;3.52;2.83;;;;;;;19.73;41.26;99247.41;1734848;80;21267;-58
2021/04/01 12:19:14;;;;;;;4.00;3.60;;;;;;;19.73;41.37;99243.81;1736249;81;21200;-59
2021/04/01 12:21:41;;;;;;;3.52;3.20;;;;;;;19.72;41.40;99237.48;1715579;81;21200;-59
2021/04/01 12:24:09;;;;;;;5.50;3.95;;;;;;;19.73;41.35;99239.72;1738924;80;21748;-61
2021/04/01 12:29:10;;;;;;;3.75;3.42;;;;;;;19.64;40.71;99227.29;1873146;75;28173;-58
2021/04/01 12:31:51;;;;;;;4.58;3.22;;;;;;;19.59;40.83;99222.75;1845554;77;21421;-58
2021/04/01 12:34:25;;;;;;;5.12;3.20;;;;;;;19.60;41.08;99225.84;1847128;77;22361;-58
2021/04/01 12:36:52;;;;;;;9.30;3.27;;;;;;;19.61;41.08;99218.52;1848887;77;21401;-59
2021/04/01 12:39:33;;;;;;;7.15;3.62;;;;;;;19.60;41.25;99208.59;1814864;77;21085;-59
2021/04/01 12:42:02;;;;;;;7.50;3.75;;;;;;;19.60;41.21;99218.15;1832845;77;21084;-60
2021/04/01 12:46:42;;;;;;;6.40;4.80;;;;;;;19.59;40.93;99206.36;1795964;78;28319;-58
2021/04/01 12:49:17;;;;;;;3.27;2.92;;;;;;;19.47;40.89;99202.08;1772946;79;21390;-58
2021/04/01 12:51:51;;;;;;;3.35;2.83;;;;;;;19.36;40.35;99193.12;1741835;81;21388;-58
2021/04/01 12:54:29;;;;;;;5.62;3.45;;;;;;;19.31;40.78;99184.52;1739296;81;21064;-58
2021/04/01 12:56:59;;;;;;;12.25;4.30;;;;;;;19.35;40.87;99179.97;1710967;82;21590;-59
2021/04/01 12:59:37;;;;;;;3.83;3.37;;;;;;;19.38;40.63;99183.80;1718868;82;21278;-58
2021/04/01 13:04:35;;;;;;;3.58;2.75;;;;;;;19.39;40.84;99174.61;1723121;82;21541;-61
2021/04/01 13:09:42;;;;;;;4.17;2.25;;;;;;;19.38;40.57;99170.65;1720625;82;21037;-59
2021/04/01 13:12:13;;;;;;;3.75;2.40;;;;;;;19.32;39.42;99167.97;1724309;82;21143;-58
2021/04/01 13:14:40;;;;;;;5.97;3.98;;;;;;;19.23;39.26;99158.77;1717465;82;21211;-60
2021/04/01 13:17:09;;;;;;;7.42;3.35;;;;;;;19.22;39.73;99159.78;1716909;82;21191;-60
2021/04/01 13:19:37;;;;;;;3.92;3.37;;;;;;;19.24;40.48;99150.95;1721792;82;21138;-58
2021/04/01 13:27:08;;;;;;;3.35;2.98;;;;;;;19.30;40.02;99144.58;1712854;82;21663;-61
2021/04/01 13:29:37;;;;;;;5.17;2.87;;;;;;;19.26;39.95;99138.03;1720937;81;21683;-60
2021/04/01 13:34:52;;;;;;;7.60;3.67;;;;;;;19.28;39.44;99126.98;1874703;75;28267;-58
2021/04/01 13:37:19;;;;;;;6.97;4.70;;;;;;;19.17;39.29;99128.48;1843218;77;21079;-60
2021/04/01 13:42:19;;;;;;;6.05;5.53;;;;;;;19.13;39.68;99132.02;1827824;77;21411;-57
2021/04/01 13:47:13;;;;;;;6.30;5.78;;;;;;;19.16;39.56;99109.02;1817557;77;21000;-58
2021/04/01 13:49:43;;;;;;;7.05;4.67;;;;;;;19.18;39.40;99114.70;1818808;77;20925;-61
2021/04/01 13:52:33;;;;;;;6.12;4.25;;;;;;;19.17;39.23;99117.57;1787342;77;21214;-57
2021/04/01 14:09:34;;;;;;;5.83;3.55;;;;;;;18.98;39.71;99093.00;1752756;80;21847;-57
2021/04/01 14:12:05;;;;;;;9.33;4.08;;;;;;;18.96;39.95;99099.13;1749077;80;21156;-58